Time;durP1;ratioP1;P1;durP2;ratioP2;P2;SDS_P1;SDS_P2;PMS_P1;PMS_P2;Temp;Humidity;BMP_temperature;BMP_pressure;BME280_temperature;BME280_humidity;BME280_pressure;Samples;Min_cycle;Max_cycle;Signal;HPM_P1;HPM_P2
2022/01/03 00:01:49;;;;;;;299.30;208.23;;;;;;;25.87;40.61;101843.38;5003878;28;20471;-46
2022/01/03 00:04:18;;;;;;;302.15;215.57;;;;;;;25.78;41.18;101833.56;5004040;28;20049;-46
2022/01/03 00:06:47;;;;;;;302.75;213.43;;;;;;;25.83;40.80;101836.28;5003338;28;20030;-45
2022/01/03 00:09:16;;;;;;;308.48;214.88;;;;;;;25.84;40.88;101845.94;5003832;28;20034;-46
2022/01/03 00:11:45;;;;;;;295.08;209.55;;;;;;;25.82;40.74;101857.28;5002504;28;20037;-47
2022/01/03 00:14:13;;;;;;;310.88;214.50;;;;;;;25.79;41.13;101852.88;5002746;28;20057;-46
2022/01/03 00:16:42;;;;;;;300.65;213.48;;;;;;;25.81;40.97;101853.78;5003895;28;20033;-46
2022/01/03 00:19:11;;;;;;;299.15;209.98;;;;;;;25.80;41.04;101844.13;5016376;28;20029;-45
2022/01/03 00:21:47;;;;;;;307.92;215.85;;;;;;;25.74;41.12;101837.00;5023054;28;20033;-48
2022/01/03 00:24:16;;;;;;;311.48;214.35;;;;;;;25.78;41.13;101835.34;5008781;28;20030;-46
2022/01/03 00:26:46;;;;;;;301.77;212.40;;;;;;;25.76;41.06;101830.03;5019358;28;20115;-46
2022/01/03 00:29:19;;;;;;;304.00;209.52;;;;;;;25.65;41.02;101828.94;5005821;28;20423;-46
2022/01/03 00:31:47;;;;;;;301.05;209.85;;;;;;;25.65;41.18;101820.19;5021667;28;21180;-46
2022/01/03 00:34:17;;;;;;;307.05;214.45;;;;;;;25.63;41.50;101823.66;5022280;28;20378;-45
2022/01/03 00:36:46;;;;;;;311.67;214.40;;;;;;;25.65;41.03;101820.19;5003899;28;20026;-46
2022/01/03 00:39:15;;;;;;;323.13;219.30;;;;;;;25.70;41.15;101839.53;5003758;28;20041;-45
2022/01/03 00:41:48;;;;;;;302.55;213.05;;;;;;;25.65;41.21;101834.19;5003875;28;20105;-46
2022/01/03 00:44:17;;;;;;;298.08;207.32;;;;;;;25.71;40.89;101823.81;5003558;28;20025;-45
2022/01/03 00:46:47;;;;;;;308.63;210.85;;;;;;;25.70;41.08;101829.94;5003701;28;20117;-45
2022/01/03 00:49:15;;;;;;;304.45;209.77;;;;;;;25.70;40.91;101821.13;5002655;28;20034;-45
2022/01/03 00:51:44;;;;;;;307.00;214.98;;;;;;;25.73;40.81;101819.44;5003777;28;20054;-46
2022/01/03 00:54:12;;;;;;;311.23;212.70;;;;;;;25.61;41.20;101816.59;5003669;28;20030;-45
2022/01/03 00:56:47;;;;;;;301.30;214.50;;;;;;;25.66;40.95;101808.78;5002488;28;20038;-45
2022/01/03 00:59:16;;;;;;;;;;;;;;;25.78;40.91;101814.31;5004137;28;20128;-44
2022/01/03 01:01:48;;;;;;;318.10;220.48;;;;;;;25.57;41.06;101807.78;5003618;28;20193;-45
2022/01/03 01:04:19;;;;;;;311.80;219.77;;;;;;;25.58;41.03;101827.03;5003210;28;20553;-44
2022/01/03 01:06:47;;;;;;;295.85;211.98;;;;;;;25.56;41.43;101824.38;5003545;28;20026;-45
2022/01/03 01:09:16;;;;;;;321.27;223.30;;;;;;;25.60;41.50;101817.44;4985937;28;20858;-45
2022/01/03 01:11:45;;;;;;;304.05;215.88;;;;;;;25.51;41.37;101805.00;5001939;28;20626;-46
2022/01/03 01:14:14;;;;;;;324.85;218.85;;;;;;;25.52;41.35;101805.91;5012701;28;20080;-45
2022/01/03 01:16:43;;;;;;;313.35;224.93;;;;;;;25.48;41.49;101804.97;5003152;28;20539;-44
2022/01/03 01:19:12;;;;;;;314.90;218.65;;;;;;;25.52;41.42;101793.66;5006684;28;20053;-44
2022/01/03 01:21:41;;;;;;;320.80;224.07;;;;;;;25.45;41.59;101783.91;5025926;28;20080;-46
2022/01/03 01:24:10;;;;;;;309.85;216.00;;;;;;;25.57;41.26;101807.78;5027033;28;20038;-44
2022/01/03 01:29:26;;;;;;;329.33;230.30;;;;;;;25.52;41.71;101793.66;5026131;28;20049;-45
2022/01/03 01:31:56;;;;;;;332.55;232.88;;;;;;;25.45;41.58;101799.66;5026561;28;20037;-44
2022/01/03 01:34:27;;;;;;;319.88;229.88;;;;;;;25.45;41.43;101799.66;5026546;28;20399;-45
2022/01/03 01:36:58;;;;;;;330.27;231.52;;;;;;;25.51;41.64;101807.63;5026615;28;20025;-45
2022/01/03 01:39:30;;;;;;;321.27;228.82;;;;;;;25.54;41.58;101810.34;5026594;28;20040;-45
2022/01/03 01:42:01;;;;;;;321.40;228.90;;;;;;;25.50;41.46;101805.88;5026504;28;20033;-45
2022/01/03 01:44:33;;;;;;;319.08;222.60;;;;;;;25.48;41.45;101811.09;5026588;28;20049;-45
2022/01/03 01:47:05;;;;;;;317.05;222.88;;;;;;;25.48;41.24;101810.22;5018415;28;20036;-44
2022/01/03 01:49:40;;;;;;;312.63;226.15;;;;;;;25.51;41.37;101802.38;5006459;28;21040;-44
2022/01/03 01:52:22;;;;;;;337.25;231.70;;;;;;;25.47;41.40;101804.06;5006467;28;20125;-45
2022/01/03 01:55:04;;;;;;;324.60;224.85;;;;;;;25.52;41.70;101795.41;5006836;28;20168;-44
2022/01/03 01:57:56;;;;;;;314.20;223.10;;;;;;;25.55;41.33;101791.09;5006779;28;20036;-45
2022/01/03 02:00:26;;;;;;;314.95;221.30;;;;;;;25.48;41.63;101791.84;4989142;28;20045;-45
2022/01/03 02:03:14;;;;;;;322.17;227.43;;;;;;;25.44;41.61;101798.75;5006222;28;20030;-45
2022/01/03 02:05:45;;;;;;;325.13;227.13;;;;;;;25.44;41.48;101788.25;5002974;28;20050;-45
2022/01/03 02:08:17;;;;;;;313.20;225.52;;;;;;;25.45;41.79;101787.41;5004849;28;20026;-45
2022/01/03 02:10:51;;;;;;;327.13;234.70;;;;;;;25.41;41.62;101784.66;5006640;28;20124;-44
2022/01/03 02:13:22;;;;;;;309.80;215.82;;;;;;;25.42;41.44;101786.47;5013067;28;20087;-45
2022/01/03 02:15:58;;;;;;;312.25;216.98;;;;;;;25.46;41.60;101788.31;5025735;28;20029;-45
2022/01/03 02:18:27;;;;;;;326.08;230.70;;;;;;;25.43;41.72;101789.09;5026079;28;20060;-45
2022/01/03 02:20:56;;;;;;;300.40;218.38;;;;;;;25.39;41.54;101779.38;5025558;28;20033;-44
2022/01/03 02:23:24;;;;;;;303.00;221.68;;;;;;;25.32;41.83;101799.34;5025972;28;20026;-45
2022/01/03 02:25:53;;;;;;;304.67;215.85;;;;;;;25.44;41.67;101796.13;5025782;28;20033;-46
2022/01/03 02:28:22;;;;;;;318.48;228.80;;;;;;;25.42;41.43;101794.34;5025634;28;20029;-45
2022/01/03 02:30:52;;;;;;;322.80;231.27;;;;;;;25.32;41.95;101777.47;5011798;28;20026;-45
2022/01/03 02:33:21;;;;;;;327.58;235.27;;;;;;;25.28;41.88;101760.78;5006101;28;20116;-45
2022/01/03 02:35:49;;;;;;;312.05;225.13;;;;;;;25.32;41.79;101773.09;5022208;28;20025;-45
2022/01/03 02:38:18;;;;;;;323.60;231.00;;;;;;;25.24;41.84;101779.94;5025589;28;20121;-45
2022/01/03 02:40:47;;;;;;;328.33;234.75;;;;;;;25.28;42.04;101773.91;5024409;28;20076;-45
2022/01/03 02:43:15;;;;;;;324.85;234.18;;;;;;;25.10;42.27;101729.75;5025483;28;20029;-45
2022/01/03 02:45:44;;;;;;;319.92;226.90;;;;;;;25.28;42.07;101760.78;5025564;28;20552;-45
2022/01/03 02:48:13;;;;;;;328.05;234.70;;;;;;;25.34;41.84;101778.41;5024054;28;20037;-45
2022/01/03 02:50:40;;;;;;;325.75;232.48;;;;;;;25.38;41.92;101760.94;5025198;28;20038;-46
2022/01/03 02:53:09;;;;;;;320.70;234.60;;;;;;;25.28;41.97;101765.13;5005350;28;20096;-45
2022/01/03 02:55:36;;;;;;;326.20;229.25;;;;;;;25.26;41.86;101762.47;5004541;28;20032;-45
2022/01/03 02:58:07;;;;;;;341.45;235.65;;;;;;;25.24;41.96;101758.94;5005735;28;20391;-46
2022/01/03 03:00:49;;;;;;;321.63;226.98;;;;;;;25.27;42.17;101755.47;5005482;28;20128;-44
2022/01/03 03:03:19;;;;;;;337.92;235.73;;;;;;;25.15;42.35;101749.13;5005378;28;20129;-46
2022/01/03 03:05:49;;;;;;;321.95;233.25;;;;;;;25.23;42.34;101749.28;5005067;28;20502;-45
2022/01/03 03:08:19;;;;;;;327.67;233.85;;;;;;;25.14;42.31;101759.63;5005359;28;20391;-45
2022/01/03 03:10:48;;;;;;;332.92;236.90;;;;;;;25.18;42.13;101743.94;5005119;28;20116;-45
2022/01/03 03:13:16;;;;;;;360.60;248.20;;;;;;;25.20;42.51;101743.97;5003877;28;20081;-45
2022/01/03 03:15:45;;;;;;;346.88;247.27;;;;;;;25.19;42.50;101750.06;5005055;28;20060;-46
2022/01/03 03:18:14;;;;;;;342.60;243.55;;;;;;;25.15;42.39;101753.50;5005062;28;20071;-45
2022/01/03 03:20:44;;;;;;;339.40;242.95;;;;;;;25.15;42.21;101740.38;5005268;28;20029;-45
2022/01/03 03:23:13;;;;;;;343.50;239.50;;;;;;;25.19;42.44;101731.69;5005098;28;20032;-47
2022/01/03 03:25:42;;;;;;;335.60;240.20;;;;;;;25.29;42.04;101740.63;5004507;28;20049;-47
2022/01/03 03:28:13;;;;;;;341.95;238.27;;;;;;;25.21;42.13;101737.00;5004600;28;20030;-46
2022/01/03 03:30:45;;;;;;;348.95;245.20;;;;;;;25.20;42.18;101730.84;5004674;28;20087;-45
2022/01/03 03:33:19;;;;;;;342.48;240.15;;;;;;;25.24;41.90;101722.16;5003435;28;20116;-45
2022/01/03 03:35:50;;;;;;;338.05;236.27;;;;;;;25.24;42.18;101716.91;5004703;28;20377;-47
2022/01/03 03:38:19;;;;;;;333.70;235.27;;;;;;;25.25;41.93;101718.69;5004864;28;20091;-45
2022/01/03 03:40:48;;;;;;;321.85;230.82;;;;;;;25.26;42.03;101724.81;5004351;28;20562;-45
2022/01/03 03:43:17;;;;;;;341.50;239.88;;;;;;;25.14;42.20;101720.22;5004091;28;20085;-45
2022/01/03 03:45:46;;;;;;;335.95;235.73;;;;;;;25.11;42.53;101714.91;5004157;28;20030;-45
2022/01/03 03:48:15;;;;;;;331.75;231.63;;;;;;;25.10;42.18;101724.50;5004192;28;20041;-44
2022/01/03 03:50:42;;;;;;;338.35;235.43;;;;;;;25.20;42.02;101714.22;5004568;28;20476;-45
2022/01/03 03:53:11;;;;;;;333.27;226.63;;;;;;;25.25;42.14;101707.28;5004335;28;20034;-44
2022/01/03 03:55:38;;;;;;;340.95;233.73;;;;;;;25.20;42.03;101698.47;5004003;28;20045;-45
2022/01/03 03:58:07;;;;;;;341.80;240.73;;;;;;;25.18;42.15;101696.69;5005672;28;20103;-44
2022/01/03 04:00:36;;;;;;;327.88;228.32;;;;;;;25.15;42.22;101695.75;5024229;28;20399;-45
2022/01/03 04:03:05;;;;;;;337.08;236.88;;;;;;;25.17;42.21;101694.91;5024060;28;20025;-44
2022/01/03 04:05:33;;;;;;;311.75;224.63;;;;;;;25.06;42.28;101693.81;5024098;28;20034;-45
2022/01/03 04:08:02;;;;;;;329.88;235.48;;;;;;;25.11;42.16;101701.78;5023788;28;20033;-45
2022/01/03 04:10:29;;;;;;;327.85;228.75;;;;;;;25.08;42.51;101686.84;5023645;28;20037;-45
2022/01/03 04:12:58;;;;;;;331.58;229.50;;;;;;;25.06;42.47;101685.94;5023976;28;20033;-44
2022/01/03 04:15:26;;;;;;;316.30;227.73;;;;;;;25.13;42.22;101672.06;5023680;28;20030;-44
2022/01/03 04:17:55;;;;;;;350.17;244.98;;;;;;;25.12;42.26;101658.94;5024177;28;20052;-45
2022/01/03 04:20:25;;;;;;;320.60;228.98;;;;;;;25.06;42.45;101657.06;5023595;28;20466;-44
2022/01/03 04:22:53;;;;;;;330.48;230.32;;;;;;;25.06;42.51;101649.19;5023328;28;20036;-44
2022/01/03 04:25:22;;;;;;;317.55;225.65;;;;;;;25.05;42.64;101646.53;5023490;28;20036;-44
2022/01/03 04:27:52;;;;;;;342.58;237.75;;;;;;;25.09;42.27;101641.34;5023557;28;20033;-44
2022/01/03 04:30:20;;;;;;;343.95;243.45;;;;;;;25.13;42.28;101640.56;5023407;28;20030;-46
2022/01/03 04:32:49;;;;;;;331.05;232.63;;;;;;;25.08;42.23;101642.22;5023748;28;20100;-47
2022/01/03 04:35:16;;;;;;;346.08;243.20;;;;;;;24.99;42.66;101634.16;5023583;28;20487;-46
2022/01/03 04:37:45;;;;;;;335.60;238.05;;;;;;;24.96;42.82;101636.72;5023738;28;20029;-46
2022/01/03 04:40:14;;;;;;;334.50;240.77;;;;;;;25.08;42.57;101643.97;5023557;28;20028;-45
2022/01/03 04:42:42;;;;;;;329.30;229.35;;;;;;;25.01;42.41;101642.97;5023564;28;20026;-44
2022/01/03 04:45:11;;;;;;;334.30;235.55;;;;;;;25.01;42.31;101633.34;5023058;28;20069;-47
2022/01/03 04:47:39;;;;;;;325.75;236.23;;;;;;;24.95;42.60;101651.59;5022380;28;20040;-46
2022/01/03 04:50:08;;;;;;;320.90;229.13;;;;;;;25.02;42.54;101642.97;5023665;28;20040;-46
2022/01/03 04:52:37;;;;;;;340.65;235.48;;;;;;;25.06;42.49;101641.31;5023866;28;20026;-47
2022/01/03 04:55:05;;;;;;;324.88;230.60;;;;;;;25.11;42.27;101639.66;5027499;28;20132;-45
2022/01/03 04:57:34;;;;;;;334.27;233.25;;;;;;;25.04;42.57;101629.91;5027330;28;20104;-46
2022/01/03 05:00:04;;;;;;;338.30;233.13;;;;;;;25.05;42.13;101621.19;5027133;28;20047;-46
2022/01/03 05:02:32;;;;;;;332.27;232.38;;;;;;;25.03;42.59;101621.13;5025748;28;20449;-45
2022/01/03 05:05:00;;;;;;;342.60;235.43;;;;;;;25.05;42.22;101613.31;5027252;28;20931;-45
2022/01/03 05:07:29;;;;;;;334.55;235.95;;;;;;;25.00;42.58;101610.56;5026012;28;20119;-46
2022/01/03 05:09:57;;;;;;;328.75;233.25;;;;;;;25.01;42.50;101614.09;5027450;28;20018;-46
2022/01/03 05:12:26;;;;;;;336.90;237.90;;;;;;;25.02;42.49;101611.47;5027170;28;20041;-45
2022/01/03 05:14:55;;;;;;;320.52;225.48;;;;;;;25.03;42.47;101609.75;5026641;28;20033;-46
2022/01/03 05:17:23;;;;;;;344.50;235.55;;;;;;;25.05;42.21;101613.31;5026939;28;20021;-45
2022/01/03 05:19:52;;;;;;;343.13;242.27;;;;;;;25.00;42.43;101607.94;5027051;28;20025;-46
2022/01/03 05:22:20;;;;;;;331.83;235.88;;;;;;;25.04;42.29;101598.41;5025697;28;20033;-45
2022/01/03 05:24:49;;;;;;;331.25;227.15;;;;;;;24.94;42.77;101593.81;5027070;28;20064;-45
2022/01/03 05:27:18;;;;;;;342.02;232.77;;;;;;;24.94;42.50;101588.56;5026609;28;20037;-45
2022/01/03 05:29:46;;;;;;;335.02;237.02;;;;;;;24.84;42.83;101584.88;5019810;28;20041;-44
2022/01/03 05:32:15;;;;;;;334.67;239.13;;;;;;;24.92;42.64;101583.31;5007060;28;20120;-44
2022/01/03 05:34:42;;;;;;;354.30;252.95;;;;;;;24.86;43.13;101580.56;5006817;28;20832;-45
2022/01/03 05:37:10;;;;;;;352.52;243.48;;;;;;;24.93;42.87;101585.06;5007122;28;20100;-44
2022/01/03 05:39:39;;;;;;;362.40;253.00;;;;;;;24.88;43.17;101571.88;5007041;28;20048;-44
2022/01/03 05:42:07;;;;;;;358.17;248.75;;;;;;;24.84;42.87;101577.91;5006725;28;20519;-45
2022/01/03 05:44:36;;;;;;;363.05;256.85;;;;;;;24.88;43.08;101590.25;5006667;28;20038;-44
2022/01/03 05:47:05;;;;;;;342.05;244.27;;;;;;;24.86;42.90;101591.06;5006483;28;20045;-44
2022/01/03 05:49:32;;;;;;;331.63;233.05;;;;;;;24.97;42.48;101586.91;5005449;28;20029;-44
2022/01/03 05:52:01;;;;;;;348.33;241.63;;;;;;;24.92;42.60;101583.31;5006694;28;20120;-44
2022/01/03 05:54:30;;;;;;;349.70;241.68;;;;;;;24.94;42.82;101581.59;5006809;28;20061;-44
2022/01/03 05:56:58;;;;;;;336.52;237.80;;;;;;;24.87;42.92;101577.97;5006558;28;20041;-46
2022/01/03 05:59:27;;;;;;;330.63;231.88;;;;;;;24.81;42.99;101564.72;5006597;28;20041;-45
2022/01/03 06:01:55;;;;;;;351.67;239.88;;;;;;;24.91;43.01;101563.16;5006101;28;20056;-44
2022/01/03 06:04:35;;;;;;;341.98;243.93;;;;;;;24.81;42.61;101548.97;5005099;28;20049;-44
2022/01/03 06:07:08;;;;;;;356.13;250.00;;;;;;;24.73;43.00;101540.09;5006550;28;20478;-45
2022/01/03 06:09:37;;;;;;;359.55;248.93;;;;;;;24.74;43.35;101541.84;5004815;28;20034;-46
2022/01/03 06:12:06;;;;;;;334.13;238.50;;;;;;;24.87;42.50;101532.47;5005591;28;20101;-47
2022/01/03 06:14:36;;;;;;;352.05;254.20;;;;;;;24.72;43.24;101533.94;5005830;28;20281;-47
2022/01/03 06:17:05;;;;;;;361.88;253.55;;;;;;;24.65;43.49;101521.56;5006146;28;20103;-45
2022/01/03 06:19:34;;;;;;;366.10;254.32;;;;;;;24.70;43.31;101512.03;5006144;28;20049;-45
2022/01/03 06:22:04;;;;;;;365.27;258.63;;;;;;;24.69;43.07;101522.50;5005165;28;20996;-45
2022/01/03 06:24:32;;;;;;;350.95;247.63;;;;;;;24.76;43.08;101513.03;5006157;28;20478;-45
2022/01/03 06:27:01;;;;;;;356.25;253.05;;;;;;;24.77;42.96;101526.16;5006073;28;20036;-46
2022/01/03 06:29:30;;;;;;;350.83;246.80;;;;;;;24.78;42.86;101532.31;5006039;28;20038;-48
2022/01/03 06:31:58;;;;;;;347.42;246.90;;;;;;;24.73;43.06;101525.22;5006082;28;20026;-45
2022/01/03 06:34:27;;;;;;;352.67;252.00;;;;;;;24.71;43.25;101519.06;5005720;28;20434;-45
2022/01/03 06:36:56;;;;;;;359.30;242.90;;;;;;;24.75;42.95;101525.25;5005559;28;20124;-45
2022/01/03 06:39:24;;;;;;;348.05;240.65;;;;;;;24.82;43.28;101518.41;5005788;28;20136;-45
2022/01/03 06:41:53;;;;;;;346.40;239.55;;;;;;;24.82;43.14;101526.28;5005945;28;20399;-45
2022/01/03 06:44:22;;;;;;;344.77;241.48;;;;;;;24.77;42.75;101523.53;5005947;28;20087;-45
2022/01/03 06:46:51;;;;;;;350.92;242.68;;;;;;;24.79;43.20;101526.19;5005932;28;20464;-45
2022/01/03 06:49:20;;;;;;;339.85;239.80;;;;;;;24.77;43.00;101514.78;5005680;28;20045;-47
2022/01/03 06:51:48;;;;;;;339.95;237.18;;;;;;;24.43;43.10;101468.69;5005360;28;20121;-47
2022/01/03 06:54:17;;;;;;;346.27;244.63;;;;;;;24.77;42.84;101514.78;5005257;28;20113;-45
2022/01/03 06:56:46;;;;;;;339.80;241.85;;;;;;;24.72;43.38;101512.09;5005308;28;20391;-45
2022/01/03 06:59:14;;;;;;;361.45;243.93;;;;;;;24.67;43.38;101511.94;5005546;28;20083;-45
2022/01/03 07:01:43;;;;;;;359.77;243.32;;;;;;;24.65;43.39;101505.81;5005532;28;20053;-46
2022/01/03 07:04:11;;;;;;;356.70;251.52;;;;;;;24.67;43.06;101513.69;5005085;28;20089;-44
2022/01/03 07:06:40;;;;;;;355.88;247.70;;;;;;;24.69;43.10;101506.75;5003883;28;20045;-44
2022/01/03 07:09:08;;;;;;;336.98;237.32;;;;;;;24.85;42.81;101511.44;5005203;28;20391;-46
2022/01/03 07:11:37;;;;;;;354.23;248.73;;;;;;;24.81;42.78;101514.88;5005124;28;20040;-45
2022/01/03 07:18:56;;;;;;;339.48;244.50;;;;;;;24.67;43.36;101504.06;5004758;28;20044;-47
2022/01/03 07:19:46;;;;;;;345.38;245.25;;;;;;;24.73;43.14;101495.50;4996918;28;20068;-45
2022/01/03 07:22:15;;;;;;;347.85;241.63;;;;;;;24.72;43.17;101493.72;5003710;28;20033;-46
2022/01/03 07:24:43;;;;;;;345.92;241.88;;;;;;;24.72;42.99;101485.84;5004830;28;20104;-45
2022/01/03 07:27:13;;;;;;;350.50;239.63;;;;;;;24.70;42.82;101480.56;5005153;28;20034;-45
2022/01/03 07:29:41;;;;;;;353.77;247.27;;;;;;;24.66;43.30;101481.31;5004978;28;20033;-46
2022/01/03 07:32:10;;;;;;;346.35;243.90;;;;;;;24.73;43.07;101479.75;5004661;28;20475;-46
2022/01/03 07:34:39;;;;;;;348.67;250.10;;;;;;;24.72;43.29;101485.84;5003658;28;20038;-45
2022/01/03 07:37:07;;;;;;;349.08;247.32;;;;;;;24.76;43.17;101476.28;5004927;28;20034;-46
2022/01/03 07:39:36;;;;;;;368.50;252.63;;;;;;;24.73;43.26;101478.00;5004836;28;20426;-45
2022/01/03 07:42:05;;;;;;;366.95;257.33;;;;;;;24.63;43.19;101477.75;5004798;28;20083;-45
2022/01/03 07:44:33;;;;;;;363.85;255.23;;;;;;;24.52;43.85;101474.94;5004780;28;20036;-46
2022/01/03 07:47:02;;;;;;;361.63;252.45;;;;;;;24.49;44.01;101467.91;5004321;28;20030;-45
2022/01/03 07:49:31;;;;;;;372.38;256.13;;;;;;;24.63;43.26;101468.16;5003295;28;20065;-45
2022/01/03 07:51:59;;;;;;;355.83;252.60;;;;;;;24.66;43.32;101470.81;5004636;28;20550;-45
2022/01/03 07:54:28;;;;;;;346.52;249.48;;;;;;;24.62;43.76;101463.78;5004547;28;20368;-45
2022/01/03 07:56:57;;;;;;;359.75;254.10;;;;;;;24.54;43.67;101454.88;5012195;28;20095;-45
2022/01/03 07:59:24;;;;;;;353.88;248.90;;;;;;;24.65;43.50;101441.94;5023915;28;20036;-45
2022/01/03 08:01:51;;;;;;;364.23;254.13;;;;;;;24.63;43.55;101441.94;5024095;28;20030;-45
2022/01/03 08:04:20;;;;;;;354.48;254.77;;;;;;;24.58;43.55;101439.22;5023632;28;20518;-45
2022/01/03 08:06:52;;;;;;;362.77;254.10;;;;;;;24.53;44.02;101432.13;5023478;28;20085;-45
2022/01/03 08:09:21;;;;;;;358.95;253.23;;;;;;;24.64;43.42;101425.34;5024026;28;20036;-45
2022/01/03 08:11:52;;;;;;;354.02;249.65;;;;;;;24.53;43.76;101419.00;5017347;28;20555;-45
2022/01/03 08:14:20;;;;;;;362.27;252.02;;;;;;;24.53;43.75;101429.50;5004305;28;20407;-44
2022/01/03 08:16:49;;;;;;;349.17;252.93;;;;;;;24.52;43.76;101427.72;5003957;28;20606;-45
2022/01/03 08:19:18;;;;;;;353.08;253.40;;;;;;;24.53;43.89;101426.88;5002850;28;20037;-46
2022/01/03 08:21:46;;;;;;;353.42;253.48;;;;;;;24.62;43.77;101418.28;5004006;28;20048;-45
2022/01/03 08:24:15;;;;;;;359.30;248.43;;;;;;;24.59;43.71;101411.25;5004211;28;20034;-45
2022/01/03 08:26:43;;;;;;;362.05;253.70;;;;;;;24.53;43.90;101409.41;5003725;28;20033;-45
2022/01/03 08:29:12;;;;;;;358.88;255.68;;;;;;;24.48;44.40;101407.56;5003687;28;20447;-45
2022/01/03 08:31:41;;;;;;;361.00;255.50;;;;;;;24.51;44.13;101400.63;5004107;28;20037;-45
2022/01/03 08:34:10;;;;;;;362.08;255.57;;;;;;;24.52;44.08;101404.13;5003825;28;20033;-45
2022/01/03 08:36:38;;;;;;;360.05;258.17;;;;;;;24.50;44.32;101397.97;5021297;28;20099;-45
2022/01/03 08:39:06;;;;;;;373.00;261.35;;;;;;;24.52;44.00;101391.91;5023198;28;20513;-45
2022/01/03 08:41:35;;;;;;;366.88;258.33;;;;;;;24.55;44.21;101389.34;5022738;28;20472;-45
2022/01/03 08:44:03;;;;;;;368.98;261.35;;;;;;;24.58;43.83;101389.38;5023159;28;20039;-45
2022/01/03 08:46:31;;;;;;;366.75;260.67;;;;;;;24.55;44.30;101396.31;5023639;28;20026;-44
2022/01/03 08:49:00;;;;;;;370.27;260.40;;;;;;;24.52;44.02;101396.25;5023413;28;20483;-45
2022/01/03 08:51:28;;;;;;;373.08;265.48;;;;;;;24.49;44.35;101396.22;5023260;28;20037;-44
2022/01/03 08:53:57;;;;;;;368.30;256.83;;;;;;;24.50;44.38;101400.59;5023053;28;20033;-44
2022/01/03 08:56:25;;;;;;;376.73;260.02;;;;;;;24.50;44.03;101397.97;5023148;28;20037;-45
2022/01/03 08:58:54;;;;;;;368.92;260.27;;;;;;;24.54;44.36;101407.66;5023080;28;20038;-45
2022/01/03 09:01:23;;;;;;;379.75;262.25;;;;;;;24.53;44.32;101405.88;5023403;28;20052;-44
2022/01/03 09:03:52;;;;;;;370.42;261.10;;;;;;;24.60;44.29;101412.13;5022743;28;20525;-45
2022/01/03 09:06:21;;;;;;;368.33;259.63;;;;;;;24.58;43.86;101401.63;5023244;28;20092;-43
2022/01/03 09:08:50;;;;;;;366.90;258.63;;;;;;;24.55;44.03;101409.44;5002145;28;20033;-44
2022/01/03 09:11:19;;;;;;;363.92;261.13;;;;;;;24.52;44.21;101399.78;5003472;28;20049;-44
2022/01/03 09:13:48;;;;;;;364.75;254.85;;;;;;;24.53;44.23;101391.06;5002251;28;20030;-44
2022/01/03 09:16:16;;;;;;;372.27;264.05;;;;;;;24.55;44.37;101389.34;5002188;28;20229;-45
2022/01/03 09:18:45;;;;;;;377.00;262.92;;;;;;;24.50;43.96;101391.00;5003153;28;20518;-44
2022/01/03 09:21:14;;;;;;;374.83;260.75;;;;;;;24.52;43.99;101383.13;5003569;28;20034;-44
2022/01/03 09:23:47;;;;;;;356.33;258.35;;;;;;;24.52;44.34;101377.91;5003420;28;20084;-44
2022/01/03 09:29:03;;;;;;;367.92;264.77;;;;;;;24.58;43.62;101378.88;5005522;28;20049;-44
2022/01/03 09:31:36;;;;;;;377.38;263.85;;;;;;;24.54;44.04;101377.09;5003462;28;20447;-45
2022/01/03 09:34:08;;;;;;;371.20;262.80;;;;;;;24.52;44.31;101378.78;5001847;28;20064;-44
2022/01/03 09:36:36;;;;;;;368.42;269.73;;;;;;;24.52;44.10;101373.56;5002769;28;20125;-44
2022/01/03 09:39:06;;;;;;;375.60;265.00;;;;;;;24.51;44.06;101363.91;5003935;28;20300;-44
2022/01/03 09:41:35;;;;;;;367.15;261.08;;;;;;;24.51;44.19;101363.91;5006424;28;20076;-45
2022/01/03 09:44:11;;;;;;;380.05;268.63;;;;;;;24.55;43.92;101360.50;5005294;28;20766;-45
2022/01/03 09:46:43;;;;;;;382.92;271.38;;;;;;;24.51;44.21;101353.44;5006450;28;20387;-45
2022/01/03 09:49:13;;;;;;;376.17;264.38;;;;;;;24.55;44.03;101356.97;5006959;28;20029;-44
2022/01/03 09:51:42;;;;;;;365.05;259.55;;;;;;;24.55;43.85;101352.63;5006779;28;20038;-44
2022/01/03 09:54:15;;;;;;;361.35;259.27;;;;;;;24.50;43.96;101348.13;5006664;28;20018;-44
2022/01/03 09:56:44;;;;;;;375.05;261.30;;;;;;;24.52;44.02;101346.41;5004935;28;20473;-44
2022/01/03 09:59:15;;;;;;;376.33;262.15;;;;;;;24.47;44.10;101348.09;5005084;28;20136;-44
2022/01/03 10:01:43;;;;;;;371.80;262.83;;;;;;;24.48;44.40;101348.13;5006655;28;20034;-45
2022/01/03 10:04:14;;;;;;;359.02;251.40;;;;;;;24.41;44.15;101346.25;5006432;28;20046;-44
2022/01/03 10:06:43;;;;;;;365.58;256.95;;;;;;;24.41;44.04;101339.28;5006753;28;20041;-44
2022/01/03 10:09:11;;;;;;;374.10;266.55;;;;;;;24.50;44.09;101327.16;5006303;28;20026;-44
2022/01/03 10:11:40;;;;;;;362.50;254.52;;;;;;;24.50;44.28;101317.56;5006291;28;20395;-45
2022/01/03 10:14:11;;;;;;;359.40;253.13;;;;;;;24.47;44.17;101314.00;5004636;28;20088;-45
2022/01/03 10:16:41;;;;;;;364.98;257.25;;;;;;;24.46;44.00;101309.63;5006133;28;20417;-45
2022/01/03 10:19:09;;;;;;;360.17;250.57;;;;;;;24.34;44.53;101299.81;5006183;28;20033;-44
2022/01/03 10:21:47;;;;;;;358.45;248.95;;;;;;;24.45;44.22;101298.22;5006070;28;20030;-44
2022/01/03 10:27:25;;;;;;;350.50;249.23;;;;;;;24.47;44.08;101314.88;4982387;28;20096;-48
2022/01/03 10:29:59;;;;;;;346.73;242.68;;;;;;;24.52;43.79;101294.88;4983994;28;20027;-45
2022/01/03 10:32:31;;;;;;;351.98;250.27;;;;;;;24.50;43.86;101287.81;4983954;28;20165;-45
2022/01/03 10:35:13;;;;;;;343.90;245.88;;;;;;;24.47;44.21;101293.91;4983467;28;20038;-45
2022/01/03 10:37:42;;;;;;;357.15;249.70;;;;;;;24.47;43.96;101280.78;4983920;28;20070;-45
2022/01/03 10:40:29;;;;;;;360.65;247.60;;;;;;;24.46;44.15;101284.28;4983593;28;21184;-48
2022/01/03 10:43:13;;;;;;;348.27;246.93;;;;;;;24.49;43.77;101281.69;4983878;28;20077;-46
2022/01/03 10:45:42;;;;;;;352.98;242.82;;;;;;;24.48;43.92;101281.69;4983927;28;20484;-44
2022/01/03 10:48:31;;;;;;;352.67;246.32;;;;;;;24.52;44.07;101291.34;4983552;28;20166;-45
2022/01/03 10:51:02;;;;;;;344.08;243.65;;;;;;;24.51;44.11;101293.09;4982814;28;20427;-44
2022/01/03 10:53:41;;;;;;;343.60;244.40;;;;;;;24.49;43.91;101279.06;4983396;28;20053;-45
2022/01/03 10:56:28;;;;;;;335.70;236.73;;;;;;;24.61;43.55;101270.53;4983683;28;20484;-44
2022/01/03 10:59:03;;;;;;;340.92;241.77;;;;;;;24.53;44.16;101266.88;5002343;28;20057;-44
2022/01/03 11:01:32;;;;;;;343.88;236.70;;;;;;;24.51;43.59;101252.88;5005286;28;20096;-45
2022/01/03 11:04:02;;;;;;;334.27;232.40;;;;;;;24.50;43.64;101256.34;5004686;28;20977;-45
2022/01/03 11:11:49;;;;;;;327.67;229.80;;;;;;;24.52;43.65;101237.16;5023870;28;20116;-44
2022/01/03 11:14:39;;;;;;;337.48;234.73;;;;;;;24.56;43.64;101220.63;5023099;28;20079;-44
2022/01/03 11:17:29;;;;;;;330.55;236.70;;;;;;;24.66;43.47;101213.75;5005234;28;20221;-46
2022/01/03 11:20:00;;;;;;;340.13;237.75;;;;;;;24.58;43.87;101205.75;5004833;28;20030;-44
2022/01/03 11:22:48;;;;;;;337.75;234.07;;;;;;;24.52;43.73;101210.03;5003992;28;20396;-45
2022/01/03 11:25:30;;;;;;;328.27;234.18;;;;;;;24.53;43.86;101201.31;5004916;28;20036;-45